Time;durP1;ratioP1;P1;durP2;ratioP2;P2;SDS_P1;SDS_P2;PMS_P1;PMS_P2;Temp;Humidity;BMP_temperature;BMP_pressure;BME280_temperature;BME280_humidity;BME280_pressure;Samples;Min_cycle;Max_cycle;Signal;HPM_P1;HPM_P2
2022/09/30 00:01:41;;;;;;;40.53;29.20;;;2.90;99.90;;;;;;5033578;28;20045;-77
2022/09/30 00:04:14;;;;;;;40.55;29.50;;;2.90;99.90;;;;;;5009456;28;20037;-74
2022/09/30 00:06:41;;;;;;;40.33;28.70;;;2.90;99.90;;;;;;5010275;28;20041;-76
2022/09/30 00:09:10;;;;;;;32.80;26.90;;;3.00;99.90;;;;;;5007033;28;20427;-77
2022/09/30 00:11:38;;;;;;;37.10;28.48;;;3.10;99.90;;;;;;5007244;28;20503;-75
2022/09/30 00:14:06;;;;;;;40.08;29.65;;;3.00;99.90;;;;;;5007409;28;20041;-76
2022/09/30 00:16:36;;;;;;;38.90;28.02;;;3.00;99.90;;;;;;5012787;28;20111;-75
2022/09/30 00:19:04;;;;;;;40.70;30.10;;;2.90;99.90;;;;;;5021446;28;20030;-78
2022/09/30 00:21:32;;;;;;;43.90;30.90;;;3.10;99.90;;;;;;5025008;28;20037;-77
2022/09/30 00:24:00;;;;;;;40.55;29.60;;;3.00;99.90;;;;;;5025993;28;20518;-75
2022/09/30 00:26:27;;;;;;;43.30;29.98;;;2.90;99.90;;;;;;4990700;28;20037;-76
2022/09/30 00:28:58;;;;;;;41.22;29.75;;;2.80;99.90;;;;;;5028613;28;20041;-75
2022/09/30 00:31:28;;;;;;;40.05;29.25;;;2.70;99.90;;;;;;5006086;28;20176;-75
2022/09/30 00:34:07;;;;;;;44.00;30.50;;;2.80;99.90;;;;;;5028716;28;20536;-76
2022/09/30 00:36:49;;;;;;;39.60;28.75;;;2.90;99.90;;;;;;5027548;28;20037;-77
2022/09/30 00:39:22;;;;;;;42.72;29.55;;;3.00;99.90;;;;;;5026676;28;20063;-76
2022/09/30 00:41:53;;;;;;;37.10;28.77;;;3.00;99.90;;;;;;5034019;28;20037;-77
2022/09/30 00:44:49;;;;;;;36.38;27.92;;;2.70;99.90;;;;;;5027379;28;20041;-76
2022/09/30 00:47:44;;;;;;;34.53;27.95;;;2.60;99.90;;;;;;5002812;28;20041;-74
2022/09/30 00:50:16;;;;;;;34.20;27.70;;;2.60;99.90;;;;;;5022199;28;20071;-77
2022/09/30 00:52:45;;;;;;;37.92;28.30;;;2.50;99.90;;;;;;5005700;28;20064;-74
2022/09/30 00:55:56;;;;;;;35.30;28.85;;;2.50;99.90;;;;;;5004176;28;20664;-76
2022/09/30 00:58:28;;;;;;;37.95;29.13;;;2.60;99.90;;;;;;5015165;28;20048;-78
2022/09/30 01:00:58;;;;;;;38.20;27.67;;;2.50;99.90;;;;;;5029591;28;20041;-78
2022/09/30 01:03:27;;;;;;;35.85;28.33;;;2.50;99.90;;;;;;5009547;28;20061;-77
2022/09/30 01:05:54;;;;;;;42.17;30.58;;;2.60;99.90;;;;;;5027954;28;20503;-76
2022/09/30 01:08:22;;;;;;;41.88;29.42;;;2.70;99.90;;;;;;5028669;22;20033;-71
2022/09/30 01:10:49;;;;;;;42.75;31.17;;;2.60;99.90;;;;;;5005458;28;20102;-71
2022/09/30 01:13:17;;;;;;;47.55;30.30;;;2.50;99.90;;;;;;5008975;28;20611;-71
2022/09/30 01:16:25;;;;;;;41.90;29.20;;;2.50;99.90;;;;;;4971706;28;20072;-72
2022/09/30 01:19:10;;;;;;;46.70;30.08;;;2.40;99.90;;;;;;4964616;28;20050;-72
2022/09/30 01:22:08;;;;;;;46.05;30.65;;;2.50;99.90;;;;;;4987799;28;20206;-71
2022/09/30 01:25:05;;;;;;;50.72;30.85;;;2.70;99.90;;;;;;4990099;28;20061;-72
2022/09/30 01:27:59;;;;;;;50.00;30.92;;;2.80;99.90;;;;;;5003878;28;20286;-71
2022/09/30 01:30:58;;;;;;;43.20;29.85;;;2.70;99.90;;;;;;4972891;28;20136;-70
2022/09/30 01:33:49;;;;;;;38.85;27.48;;;2.60;99.90;;;;;;5004546;28;20790;-71
2022/09/30 01:36:24;;;;;;;40.63;29.48;;;2.40;99.90;;;;;;5009142;28;20050;-71
2022/09/30 01:39:35;;;;;;;40.50;29.38;;;2.40;99.90;;;;;;4992920;28;20051;-71
2022/09/30 01:42:12;;;;;;;38.20;28.00;;;2.30;99.90;;;;;;4984804;28;20532;-71
2022/09/30 01:44:51;;;;;;;37.67;27.15;;;2.30;99.90;;;;;;5004894;28;20049;-71
2022/09/30 01:47:24;;;;;;;41.35;28.73;;;2.30;99.90;;;;;;5002964;28;20050;-71
2022/09/30 01:50:00;;;;;;;42.42;29.50;;;2.30;99.90;;;;;;4982831;28;20045;-71
2022/09/30 01:52:42;;;;;;;40.25;28.27;;;2.50;99.90;;;;;;4989170;28;21331;-71
2022/09/30 01:55:26;;;;;;;46.80;30.38;;;2.50;99.90;;;;;;4980744;28;20132;-71
2022/09/30 01:58:20;;;;;;;45.75;29.27;;;2.60;99.90;;;;;;5003809;28;20520;-71
2022/09/30 02:00:51;;;;;;;44.15;28.38;;;2.60;99.90;;;;;;5003182;28;20042;-70
2022/09/30 02:03:30;;;;;;;45.35;29.33;;;2.60;99.90;;;;;;5006782;28;20053;-71
2022/09/30 02:06:20;;;;;;;48.85;29.00;;;2.40;99.90;;;;;;5007788;28;20079;-72
2022/09/30 02:08:54;;;;;;;39.75;28.70;;;2.40;99.90;;;;;;4992079;28;21218;-70
2022/09/30 02:11:25;;;;;;;43.25;28.25;;;2.30;99.90;;;;;;4985512;28;20140;-71
2022/09/30 02:14:05;;;;;;;40.10;26.88;;;2.20;99.90;;;;;;4999993;28;20065;-71
2022/09/30 02:16:41;;;;;;;42.38;28.25;;;2.20;99.90;;;;;;4989031;28;20132;-72
2022/09/30 02:19:38;;;;;;;36.50;27.30;;;2.10;99.90;;;;;;4991809;28;20084;-71
2022/09/30 02:22:46;;;;;;;34.13;26.27;;;2.10;99.90;;;;;;5000207;28;20131;-71
2022/09/30 02:25:19;;;;;;;39.13;28.33;;;2.10;99.90;;;;;;4904010;29;20134;-71
2022/09/30 02:27:54;;;;;;;37.78;27.23;;;2.10;99.90;;;;;;4981231;28;20053;-75
2022/09/30 02:30:21;;;;;;;42.63;28.48;;;2.20;99.90;;;;;;4992866;28;20136;-75
2022/09/30 02:33:02;;;;;;;48.25;31.17;;;2.10;99.90;;;;;;4995844;28;20822;-74
2022/09/30 02:35:57;;;;;;;48.97;31.58;;;2.10;99.90;;;;;;5009780;28;20044;-75
2022/09/30 02:38:28;;;;;;;44.05;31.38;;;2.20;99.90;;;;;;5013061;28;20136;-74
2022/09/30 02:41:03;;;;;;;52.65;31.80;;;2.10;99.90;;;;;;4971334;28;20048;-74
2022/09/30 02:43:30;;;;;;;41.30;30.77;;;2.10;99.90;;;;;;5019848;28;20049;-74
2022/09/30 02:46:16;;;;;;;51.72;31.58;;;1.90;99.90;;;;;;4994383;28;20413;-75
2022/09/30 02:48:53;;;;;;;49.65;31.92;;;2.10;99.90;;;;;;4997441;28;20053;-75
2022/09/30 02:51:48;;;;;;;46.38;30.80;;;2.00;99.90;;;;;;5017189;28;20507;-74
2022/09/30 02:54:40;;;;;;;46.80;31.83;;;1.90;99.90;;;;;;5018574;28;20037;-74
2022/09/30 02:57:21;;;;;;;53.13;33.67;;;2.00;99.90;;;;;;5013270;28;20693;-74
2022/09/30 02:59:51;;;;;;;51.03;33.38;;;2.10;99.90;;;;;;5010051;28;20132;-74
2022/09/30 03:02:19;;;;;;;51.17;32.28;;;2.20;99.90;;;;;;5016051;28;20041;-74
2022/09/30 03:04:48;;;;;;;48.58;34.03;;;2.00;99.90;;;;;;5003405;28;20125;-74
2022/09/30 03:07:15;;;;;;;53.92;33.28;;;2.10;99.90;;;;;;5002918;28;20041;-75
2022/09/30 03:09:42;;;;;;;56.83;34.25;;;1.90;99.90;;;;;;5017063;28;20045;-74
2022/09/30 03:12:26;;;;;;;53.60;33.38;;;1.80;99.90;;;;;;5000734;28;20585;-75
2022/09/30 03:15:11;;;;;;;49.40;32.38;;;1.80;99.90;;;;;;4983937;28;20130;-75
2022/09/30 03:17:56;;;;;;;48.92;33.45;;;1.70;99.90;;;;;;5010389;28;20041;-75
2022/09/30 03:20:42;;;;;;;44.75;32.92;;;1.70;99.90;;;;;;5011897;28;20057;-74
2022/09/30 03:23:40;;;;;;;56.15;35.20;;;1.80;99.90;;;;;;4996005;28;20051;-74
2022/09/30 03:26:46;;;;;;;48.38;32.75;;;1.70;99.90;;;;;;5014681;28;20049;-75
2022/09/30 03:29:23;;;;;;;51.13;32.92;;;1.70;99.90;;;;;;4994958;28;20068;-74
2022/09/30 03:31:55;;;;;;;54.20;33.97;;;1.60;99.90;;;;;;5011386;28;20586;-74
2022/09/30 03:34:36;;;;;;;46.50;32.67;;;1.60;99.90;;;;;;5003810;28;20038;-74
2022/09/30 03:37:29;;;;;;;53.83;33.35;;;1.60;99.90;;;;;;5011239;28;20043;-73
2022/09/30 03:39:58;;;;;;;55.08;33.67;;;1.60;99.90;;;;;;4986717;28;20038;-73
2022/09/30 03:42:36;;;;;;;53.72;33.03;;;1.50;99.90;;;;;;5004928;28;20114;-73
2022/09/30 03:45:19;;;;;;;49.33;32.80;;;1.50;99.90;;;;;;4992659;28;20080;-74
2022/09/30 03:47:52;;;;;;;53.15;33.80;;;1.50;99.90;;;;;;5014418;28;20095;-74
2022/09/30 03:50:22;;;;;;;56.15;35.20;;;1.50;99.90;;;;;;5006434;28;20229;-74
2022/09/30 03:52:49;;;;;;;53.17;34.63;;;1.60;99.90;;;;;;5017490;28;20281;-76
2022/09/30 03:55:18;;;;;;;59.80;36.70;;;1.80;99.90;;;;;;5007450;28;20065;-74
2022/09/30 03:57:45;;;;;;;62.65;35.72;;;1.90;99.90;;;;;;4987244;28;20049;-74
2022/09/30 04:00:12;;;;;;;63.10;38.47;;;2.00;99.90;;;;;;5006331;28;20046;-74
2022/09/30 04:02:39;;;;;;;69.18;39.53;;;1.90;99.90;;;;;;4996520;28;20128;-75
2022/09/30 04:05:07;;;;;;;70.97;38.33;;;1.80;99.90;;;;;;5002747;28;21833;-75
2022/09/30 04:07:34;;;;;;;64.63;38.95;;;1.80;99.90;;;;;;5011083;28;20037;-74
2022/09/30 04:10:01;;;;;;;63.60;39.15;;;1.70;99.90;;;;;;4994786;28;20052;-73
2022/09/30 04:12:27;;;;;;;69.50;40.47;;;1.60;99.90;;;;;;4995430;28;20048;-75
2022/09/30 04:14:54;;;;;;;69.25;40.38;;;1.60;99.90;;;;;;5012211;28;20103;-73
2022/09/30 04:17:21;;;;;;;69.20;39.35;;;1.60;99.90;;;;;;4987663;28;20037;-74
2022/09/30 04:19:48;;;;;;;69.50;39.25;;;1.50;99.90;;;;;;5003490;28;20379;-75
2022/09/30 04:22:15;;;;;;;67.88;42.67;;;1.50;99.90;;;;;;5016198;28;20037;-75
2022/09/30 04:24:42;;;;;;;80.28;43.60;;;1.60;99.90;;;;;;5003481;28;20046;-74
2022/09/30 04:27:09;;;;;;;75.85;40.00;;;1.60;99.90;;;;;;5016893;28;20076;-73
2022/09/30 04:29:36;;;;;;;72.85;41.45;;;1.50;99.90;;;;;;5007082;28;20045;-73
2022/09/30 04:32:02;;;;;;;67.75;40.90;;;1.40;99.90;;;;;;4985542;28;20041;-74
2022/09/30 04:34:29;;;;;;;70.72;39.65;;;1.60;99.90;;;;;;5012815;28;20095;-75
2022/09/30 04:36:56;;;;;;;89.88;42.83;;;1.70;99.90;;;;;;4980829;28;20033;-75
2022/09/30 04:39:23;;;;;;;78.50;41.80;;;1.70;99.90;;;;;;4994962;28;20171;-74
2022/09/30 04:41:52;;;;;;;84.53;41.42;;;1.70;99.90;;;;;;4997103;28;20045;-73
2022/09/30 04:44:20;;;;;;;73.13;38.58;;;1.60;99.90;;;;;;5006107;28;20148;-74
2022/09/30 04:46:47;;;;;;;72.20;39.58;;;1.50;99.90;;;;;;4988824;28;20045;-75
2022/09/30 04:49:14;;;;;;;61.90;37.08;;;1.50;99.90;;;;;;5014626;28;20263;-75
2022/09/30 04:51:44;;;;;;;68.85;37.50;;;1.40;99.90;;;;;;5010899;28;20043;-74
2022/09/30 04:54:12;;;;;;;69.60;40.28;;;1.30;99.90;;;;;;5000239;28;20041;-75
2022/09/30 04:56:39;;;;;;;76.68;41.05;;;1.40;99.90;;;;;;4996810;28;20044;-74
2022/09/30 04:59:05;;;;;;;82.38;42.33;;;1.40;99.90;;;;;;5018562;28;20028;-74
2022/09/30 05:01:33;;;;;;;75.80;42.13;;;1.50;99.90;;;;;;4991253;28;20116;-75
2022/09/30 05:03:59;;;;;;;80.85;40.72;;;1.70;99.90;;;;;;4995476;28;20045;-75
2022/09/30 05:06:26;;;;;;;82.30;42.15;;;1.70;99.90;;;;;;5013895;28;20471;-73
2022/09/30 05:08:53;;;;;;;80.75;41.80;;;1.60;99.90;;;;;;5015214;28;20053;-74
2022/09/30 05:11:21;;;;;;;70.78;38.08;;;1.40;99.90;;;;;;4991236;28;20136;-76
2022/09/30 05:13:49;;;;;;;90.22;43.05;;;1.30;99.90;;;;;;4992899;28;20112;-73
2022/09/30 05:16:17;;;;;;;96.50;45.45;;;1.40;99.90;;;;;;5015067;28;20738;-75
2022/09/30 05:18:45;;;;;;;82.63;43.72;;;1.40;99.90;;;;;;5011494;28;20083;-75
2022/09/30 05:21:13;;;;;;;92.90;44.95;;;1.50;99.90;;;;;;4986296;28;20033;-74
2022/09/30 05:23:40;;;;;;;88.72;43.63;;;1.50;99.90;;;;;;4984314;28;20069;-73
2022/09/30 05:26:07;;;;;;;97.43;45.95;;;1.40;99.90;;;;;;4989315;28;20503;-76
2022/09/30 05:28:39;;;;;;;74.97;40.28;;;1.30;99.90;;;;;;4988346;28;20090;-74
2022/09/30 05:31:07;;;;;;;83.03;42.60;;;1.30;99.90;;;;;;4987364;28;20937;-74
2022/09/30 05:33:34;;;;;;;88.20;42.70;;;1.30;99.90;;;;;;5009020;28;20104;-75
2022/09/30 05:36:04;;;;;;;91.53;44.53;;;1.30;99.90;;;;;;5007571;28;20038;-73
2022/09/30 05:38:31;;;;;;;90.93;46.65;;;1.30;99.90;;;;;;4994758;28;20053;-73
2022/09/30 05:41:05;;;;;;;99.90;45.28;;;1.30;99.90;;;;;;5007188;28;20059;-74
2022/09/30 05:43:32;;;;;;;97.63;46.05;;;1.40;99.90;;;;;;4983360;28;20057;-74
2022/09/30 05:45:58;;;;;;;95.28;44.53;;;1.40;99.90;;;;;;4979823;28;20041;-74
2022/09/30 05:48:25;;;;;;;88.47;42.83;;;1.40;99.90;;;;;;5014287;28;20064;-75
2022/09/30 05:50:56;;;;;;;93.95;41.15;;;1.40;99.90;;;;;;4987863;28;20616;-75
2022/09/30 05:53:24;;;;;;;80.72;40.50;;;1.40;99.90;;;;;;5007179;28;20132;-75
2022/09/30 05:55:51;;;;;;;80.53;41.38;;;1.40;99.90;;;;;;5000313;28;20123;-74
2022/09/30 05:58:19;;;;;;;93.57;41.65;;;1.40;99.90;;;;;;4993649;28;20060;-74
2022/09/30 06:00:47;;;;;;;82.50;40.90;;;1.40;99.90;;;;;;5011837;28;20124;-74
2022/09/30 06:03:14;;;;;;;93.57;45.15;;;1.40;99.90;;;;;;5011197;28;20158;-73
2022/09/30 06:05:41;;;;;;;89.65;43.13;;;1.40;99.90;;;;;;4990555;28;20603;-74
2022/09/30 06:08:09;;;;;;;95.90;44.10;;;1.40;99.90;;;;;;4992412;28;20321;-73
2022/09/30 06:10:38;;;;;;;90.30;45.40;;;1.50;99.90;;;;;;5019849;28;20679;-74
2022/09/30 06:13:06;;;;;;;110.68;51.63;;;1.60;99.90;;;;;;5000028;28;20078;-74
2022/09/30 06:15:33;;;;;;;120.70;52.70;;;1.60;99.90;;;;;;4998531;28;20420;-74
2022/09/30 06:17:59;;;;;;;103.38;49.28;;;1.80;99.90;;;;;;4997810;28;20051;-73
2022/09/30 06:20:26;;;;;;;109.13;47.95;;;1.80;99.90;;;;;;5007872;28;20061;-75
2022/09/30 06:22:53;;;;;;;107.07;47.30;;;1.90;99.90;;;;;;5013264;28;20551;-73
2022/09/30 06:25:21;;;;;;;101.20;47.78;;;1.80;99.90;;;;;;4994884;28;20305;-74
2022/09/30 06:27:49;;;;;;;97.03;44.60;;;1.90;99.90;;;;;;5007991;28;20048;-73
2022/09/30 06:30:15;;;;;;;81.90;42.30;;;1.90;99.90;;;;;;4997762;28;20037;-73
2022/09/30 06:32:42;;;;;;;91.57;45.50;;;2.00;99.90;;;;;;4997874;28;20041;-73
2022/09/30 06:35:09;;;;;;;94.38;46.55;;;2.00;99.90;;;;;;4989717;28;20053;-73
2022/09/30 06:37:37;;;;;;;93.57;46.85;;;2.00;99.90;;;;;;4990619;28;20179;-73
2022/09/30 06:40:05;;;;;;;88.80;47.85;;;2.10;99.90;;;;;;4980572;28;20077;-74
2022/09/30 06:42:34;;;;;;;96.63;48.60;;;2.10;99.90;;;;;;5025007;28;20041;-73
2022/09/30 06:45:01;;;;;;;102.80;49.63;;;2.20;99.90;;;;;;5011068;28;20042;-73
2022/09/30 06:47:28;;;;;;;108.70;50.83;;;2.30;99.90;;;;;;4995655;28;20513;-73
2022/09/30 06:49:57;;;;;;;104.20;52.47;;;2.40;99.90;;;;;;5012956;28;20131;-72
2022/09/30 06:52:25;;;;;;;99.82;51.88;;;2.50;99.90;;;;;;4993095;28;20440;-73
2022/09/30 06:54:55;;;;;;;105.68;52.17;;;2.50;99.90;;;;;;5003016;28;20497;-73
2022/09/30 06:57:23;;;;;;;93.78;49.10;;;2.70;99.90;;;;;;5014888;28;20072;-73
2022/09/30 06:59:51;;;;;;;100.05;50.30;;;2.80;99.90;;;;;;4991368;28;20645;-73
2022/09/30 07:02:17;;;;;;;96.82;49.47;;;2.90;99.90;;;;;;5012649;28;20047;-73
2022/09/30 07:04:45;;;;;;;128.13;61.63;;;3.10;99.90;;;;;;5007910;28;20124;-73
2022/09/30 07:07:11;;;;;;;105.65;56.60;;;3.20;99.90;;;;;;5008321;28;20075;-73
2022/09/30 07:09:38;;;;;;;120.70;57.42;;;3.40;99.90;;;;;;5013083;23;20050;-74
2022/09/30 07:12:06;;;;;;;112.90;58.17;;;3.60;99.90;;;;;;5031202;28;20033;-74
2022/09/30 07:14:34;;;;;;;111.70;56.80;;;3.90;99.90;;;;;;5013245;28;20495;-75
2022/09/30 07:17:03;;;;;;;112.13;59.10;;;4.20;99.90;;;;;;4998567;28;20060;-75
2022/09/30 07:19:30;;;;;;;102.18;56.20;;;4.40;99.90;;;;;;5012963;28;20508;-75
2022/09/30 07:22:26;;;;;;;115.22;57.03;;;4.50;99.90;;;;;;4993126;28;20045;-75
2022/09/30 07:24:44;;;;;;;114.38;57.90;;;4.70;99.90;;;;;;5006483;28;20053;-75
2022/09/30 07:27:12;;;;;;;108.13;55.33;;;4.70;99.90;;;;;;5008704;28;20029;-74
2022/09/30 07:29:40;;;;;;;111.28;57.10;;;5.00;99.90;;;;;;5008751;28;20061;-75
2022/09/30 07:32:27;;;;;;;113.47;56.08;;;5.20;99.90;;;;;;5031675;28;20053;-75
2022/09/30 07:34:53;;;;;;;108.00;52.40;;;5.40;99.90;;;;;;5008840;28;20041;-75
2022/09/30 07:37:20;;;;;;;109.72;55.72;;;5.50;99.90;;;;;;4998542;28;20038;-76
2022/09/30 07:39:48;;;;;;;106.22;54.72;;;5.60;99.90;;;;;;5025942;28;20053;-76
2022/09/30 07:42:19;;;;;;;87.35;50.90;;;5.80;99.90;;;;;;5004175;28;20060;-75
2022/09/30 07:44:50;;;;;;;77.55;47.45;;;6.10;99.90;;;;;;5011957;28;20139;-76
2022/09/30 07:47:19;;;;;;;72.70;42.95;;;6.70;99.90;;;;;;5006508;28;20042;-75
2022/09/30 07:49:46;;;;;;;52.90;35.97;;;7.40;99.90;;;;;;5008861;28;20505;-76
2022/09/30 07:52:13;;;;;;;43.20;33.75;;;7.90;99.90;;;;;;5032679;28;20044;-75
2022/09/30 07:54:41;;;;;;;36.22;29.00;;;8.50;99.90;;;;;;5021931;28;20537;-76
2022/09/30 07:57:14;;;;;;;31.97;28.53;;;8.90;99.90;;;;;;5024980;28;20041;-76
2022/09/30 07:59:41;;;;;;;29.98;27.08;;;9.30;99.90;;;;;;5033785;28;20652;-76
2022/09/30 08:02:13;;;;;;;34.78;31.58;;;9.50;99.90;;;;;;5022424;28;20556;-76
2022/09/30 08:04:40;;;;;;;31.80;28.98;;;9.90;99.90;;;;;;5015940;28;20049;-76
2022/09/30 08:07:12;;;;;;;37.20;33.78;;;10.20;99.90;;;;;;5040987;28;20053;-76
2022/09/30 08:09:39;;;;;;;36.20;33.15;;;10.50;99.90;;;;;;5014806;28;20055;-76
2022/09/30 08:12:06;;;;;;;37.72;34.70;;;10.80;99.90;;;;;;5005941;28;20049;-77
2022/09/30 08:14:33;;;;;;;38.70;35.70;;;11.00;99.90;;;;;;5007590;28;20415;-75
2022/09/30 08:17:00;;;;;;;34.95;32.50;;;11.30;99.90;;;;;;5003955;28;20046;-76
2022/09/30 08:19:28;;;;;;;35.38;32.88;;;11.80;99.90;;;;;;5024712;28;20045;-76
2022/09/30 08:21:56;;;;;;;34.47;31.95;;;12.10;99.90;;;;;;5007225;28;20049;-76
2022/09/30 08:24:25;;;;;;;33.38;30.98;;;12.40;99.90;;;;;;5019855;28;20046;-76
2022/09/30 08:26:52;;;;;;;31.38;29.25;;;12.60;99.90;;;;;;5007056;28;20034;-77
2022/09/30 08:29:19;;;;;;;33.47;30.83;;;12.80;99.90;;;;;;5012914;28;20068;-76
2022/09/30 08:32:06;;;;;;;32.33;29.60;;;13.10;99.90;;;;;;5010275;28;20449;-76
2022/09/30 08:34:34;;;;;;;30.55;28.25;;;13.40;99.90;;;;;;5018982;28;20466;-76
2022/09/30 08:37:01;;;;;;;32.22;29.83;;;13.60;99.90;;;;;;5005786;28;20410;-76
2022/09/30 08:39:34;;;;;;;31.38;28.85;;;13.50;99.90;;;;;;4996416;28;20126;-76
2022/09/30 08:42:18;;;;;;;33.20;30.58;;;13.70;99.90;;;;;;4993699;28;20037;-75
2022/09/30 08:45:41;;;;;;;31.30;29.00;;;13.90;99.90;;;;;;5019646;28;20049;-77
2022/09/30 08:48:25;;;;;;;31.17;29.05;;;14.30;99.90;;;;;;5011022;28;20041;-76
2022/09/30 08:51:30;;;;;;;29.98;27.52;;;14.40;99.90;;;;;;5029812;28;20051;-76
2022/09/30 08:53:59;;;;;;;30.10;27.58;;;14.50;99.90;;;;;;5007276;28;20399;-75
2022/09/30 08:56:30;;;;;;;32.25;29.95;;;14.50;99.90;;;;;;5027906;28;20048;-76
2022/09/30 08:59:33;;;;;;;31.08;28.98;;;14.60;99.90;;;;;;5036570;28;20056;-76
2022/09/30 09:02:20;;;;;;;29.85;27.60;;;14.60;99.90;;;;;;4998546;28;20136;-76
2022/09/30 09:04:51;;;;;;;29.48;27.30;;;14.70;99.90;;;;;;5007130;23;20103;-73
2022/09/30 09:07:47;;;;;;;27.88;25.88;;;14.80;99.90;;;;;;4995048;28;20046;-74
2022/09/30 09:10:47;;;;;;;27.92;26.00;;;15.10;99.90;;;;;;4967351;28;20038;-73
2022/09/30 09:13:43;;;;;;;28.13;26.13;;;15.30;99.90;;;;;;4971880;28;20137;-73
2022/09/30 09:16:09;;;;;;;29.70;27.70;;;15.60;99.90;;;;;;4968161;28;20041;-73
2022/09/30 09:18:43;;;;;;;30.58;28.08;;;15.60;99.90;;;;;;4973408;28;20158;-73
2022/09/30 09:21:28;;;;;;;30.08;28.00;;;15.40;99.90;;;;;;4967423;28;20043;-73
2022/09/30 09:23:59;;;;;;;31.88;29.48;;;15.50;99.90;;;;;;4970413;28;20046;-74
2022/09/30 09:26:29;;;;;;;31.52;29.23;;;15.40;99.90;;;;;;4974013;28;20054;-73
2022/09/30 09:29:21;;;;;;;30.85;28.92;;;15.50;99.90;;;;;;4976548;28;20164;-73
2022/09/30 09:31:48;;;;;;;29.48;27.55;;;15.50;99.90;;;;;;4973634;28;20126;-73
2022/09/30 09:34:15;;;;;;;29.13;27.27;;;15.70;99.90;;;;;;4958866;28;20145;-73
2022/09/30 09:36:44;;;;;;;29.73;27.63;;;15.90;99.90;;;;;;4968902;28;20129;-72
2022/09/30 09:39:37;;;;;;;30.38;28.48;;;15.90;99.90;;;;;;4971557;28;20053;-74
2022/09/30 09:42:25;;;;;;;29.67;27.55;;;15.80;99.90;;;;;;4974697;28;20088;-73
2022/09/30 09:45:08;;;;;;;30.75;28.52;;;15.80;99.90;;;;;;4970017;28;20052;-73
2022/09/30 09:47:34;;;;;;;29.45;27.65;;;15.70;99.90;;;;;;4957928;28;20046;-73
2022/09/30 09:50:03;;;;;;;29.10;27.13;;;15.80;99.90;;;;;;4939711;28;20053;-73
2022/09/30 09:52:33;;;;;;;29.83;27.40;;;16.00;99.90;;;;;;4974259;28;20053;-74
2022/09/30 09:54:59;;;;;;;30.25;28.15;;;16.00;99.90;;;;;;4972002;28;20423;-73
2022/09/30 09:57:31;;;;;;;29.92;27.98;;;15.80;99.90;;;;;;4970550;28;20042;-73
2022/09/30 10:03:19;;;;;;;29.70;27.52;;;15.80;99.90;;;;;;4954376;28;20056;-70
2022/09/30 10:06:05;;;;;;;31.27;28.90;;;16.00;99.90;;;;;;4970730;28;20138;-70
2022/09/30 10:08:38;;;;;;;30.95;28.92;;;15.90;99.90;;;;;;4962141;28;20042;-70
2022/09/30 10:11:16;;;;;;;31.60;29.27;;;15.70;99.90;;;;;;4970525;28;20065;-70
2022/09/30 10:13:44;;;;;;;31.50;29.13;;;15.80;99.90;;;;;;4968801;28;20050;-70
2022/09/30 10:16:36;;;;;;;31.75;29.40;;;15.90;99.90;;;;;;4969228;28;20042;-69
2022/09/30 10:19:17;;;;;;;32.15;29.85;;;16.20;99.90;;;;;;4974354;28;20053;-70
2022/09/30 10:21:44;;;;;;;31.77;29.33;;;16.30;99.90;;;;;;4966094;28;20082;-70
2022/09/30 10:24:30;;;;;;;30.58;28.45;;;16.30;99.90;;;;;;4971448;28;20045;-69
2022/09/30 10:26:57;;;;;;;31.58;29.35;;;16.60;99.90;;;;;;4967813;28;20046;-69
2022/09/30 10:29:33;;;;;;;32.22;29.60;;;16.60;99.90;;;;;;4971839;28;20046;-68
2022/09/30 10:32:05;;;;;;;30.77;28.45;;;16.90;99.90;;;;;;4970685;28;20049;-69
2022/09/30 10:34:34;;;;;;;29.73;27.52;;;16.80;99.90;;;;;;4967906;28;20046;-69
2022/09/30 10:37:08;;;;;;;32.13;29.63;;;16.70;99.90;;;;;;4965646;28;20049;-69
2022/09/30 10:39:38;;;;;;;31.05;28.80;;;16.30;99.90;;;;;;4976982;28;20684;-69
2022/09/30 10:42:16;;;;;;;32.80;30.35;;;16.00;99.90;;;;;;4972839;28;20061;-69
2022/09/30 10:45:00;;;;;;;32.78;30.10;;;15.40;99.90;;;;;;4966657;28;20050;-74
2022/09/30 10:47:29;;;;;;;34.95;32.05;;;15.10;99.90;;;;;;4952869;28;20045;-68
2022/09/30 10:50:09;;;;;;;33.63;31.02;;;15.00;99.90;;;;;;4972478;28;20124;-69
2022/09/30 10:53:04;;;;;;;34.58;31.88;;;14.90;99.90;;;;;;4977511;28;20505;-70
2022/09/30 10:55:34;;;;;;;33.45;30.70;;;14.80;99.90;;;;;;4967269;28;20054;-70
2022/09/30 10:58:20;;;;;;;37.42;34.28;;;14.60;99.90;;;;;;4973835;28;20137;-67
2022/09/30 11:00:50;;;;;;;35.05;32.53;;;14.40;99.90;;;;;;4978478;28;20050;-70
2022/09/30 11:03:23;;;;;;;33.00;30.42;;;14.20;99.90;;;;;;4973440;28;20054;-71
2022/09/30 11:05:50;;;;;;;31.45;28.95;;;14.00;99.90;;;;;;4969611;28;20651;-69
2022/09/30 11:08:40;;;;;;;32.97;30.38;;;14.10;99.90;;;;;;4958497;28;20050;-69
2022/09/30 11:11:13;;;;;;;32.20;29.75;;;14.40;99.90;;;;;;4969732;28;20054;-68
2022/09/30 11:13:56;;;;;;;30.38;28.15;;;14.70;99.90;;;;;;4972721;28;20057;-68
2022/09/30 11:16:41;;;;;;;30.90;28.52;;;15.00;99.90;;;;;;4981209;28;20050;-68
2022/09/30 11:19:21;;;;;;;29.80;27.33;;;15.20;99.90;;;;;;4972365;28;20050;-68
2022/09/30 11:21:47;;;;;;;29.98;27.75;;;15.70;99.90;;;;;;4948598;28;20543;-69
2022/09/30 11:24:27;;;;;;;31.80;29.25;;;15.80;99.90;;;;;;4970225;28;20488;-69
2022/09/30 11:27:01;;;;;;;31.80;29.63;;;15.60;99.90;;;;;;4956362;28;20045;-70
2022/09/30 11:29:59;;;;;;;29.38;27.30;;;15.50;99.90;;;;;;4968974;28;20050;-68
2022/09/30 11:32:48;;;;;;;31.63;29.35;;;15.30;99.90;;;;;;4978679;28;20043;-68
2022/09/30 11:35:36;;;;;;;29.02;26.95;;;15.20;99.90;;;;;;4960100;28;20038;-67
2022/09/30 11:38:21;;;;;;;30.75;28.48;;;15.00;99.90;;;;;;4971260;28;20265;-68
2022/09/30 11:41:06;;;;;;;28.05;26.10;;;14.90;99.90;;;;;;4970115;28;20041;-68
2022/09/30 11:43:56;;;;;;;29.55;26.98;;;15.00;99.90;;;;;;4948237;28;20049;-69
2022/09/30 11:46:34;;;;;;;28.20;26.10;;;14.70;99.90;;;;;;4970469;28;20133;-68
2022/09/30 11:49:42;;;;;;;28.05;25.75;;;14.80;99.90;;;;;;4957036;28;20033;-69
2022/09/30 11:52:22;;;;;;;28.58;26.38;;;15.10;99.90;;;;;;4967561;28;20049;-70
2022/09/30 11:54:52;;;;;;;26.05;24.25;;;15.50;99.90;;;;;;4971563;28;20282;-70
2022/09/30 11:57:31;;;;;;;28.48;26.45;;;15.50;99.90;;;;;;4970478;28;20525;-70
2022/09/30 12:00:06;;;;;;;29.90;27.48;;;15.60;99.90;;;;;;4969092;28;20528;-71
2022/09/30 12:02:48;;;;;;;30.30;28.08;;;15.80;99.90;;;;;;4969593;28;20138;-70
2022/09/30 12:05:26;;;;;;;29.65;27.45;;;16.00;99.90;;;;;;4966121;28;20038;-70
2022/09/30 12:08:08;;;;;;;28.27;26.35;;;16.30;99.90;;;;;;4970232;28;20567;-68
2022/09/30 12:10:54;;;;;;;30.17;27.95;;;16.30;99.90;;;;;;4971310;28;20055;-68
2022/09/30 12:13:35;;;;;;;28.00;25.67;;;16.00;99.90;;;;;;4965948;28;20042;-68
2022/09/30 12:16:06;;;;;;;30.17;27.58;;;15.70;99.90;;;;;;4950840;28;20035;-68
2022/09/30 12:18:38;;;;;;;29.42;27.23;;;15.60;99.90;;;;;;4966461;28;20062;-68
2022/09/30 12:21:20;;;;;;;29.52;27.38;;;15.90;99.90;;;;;;4974929;28;20543;-68
2022/09/30 12:23:56;;;;;;;28.58;26.48;;;16.10;99.90;;;;;;4971723;28;20034;-69
2022/09/30 12:26:24;;;;;;;28.13;26.13;;;16.40;99.90;;;;;;4963416;28;20057;-68
2022/09/30 12:32:07;;;;;;;28.40;26.27;;;16.70;99.90;;;;;;4975907;28;20042;-69
2022/09/30 12:34:49;;;;;;;29.00;26.88;;;16.60;99.90;;;;;;4975361;28;20071;-70
2022/09/30 12:37:16;;;;;;;28.70;26.48;;;16.40;99.90;;;;;;4967337;28;20034;-69
2022/09/30 12:39:45;;;;;;;27.38;25.60;;;16.40;99.90;;;;;;4969570;28;20038;-70
2022/09/30 12:42:32;;;;;;;27.55;25.85;;;16.70;99.90;;;;;;4961988;28;20467;-70
2022/09/30 12:45:35;;;;;;;28.30;26.15;;;16.70;99.90;;;;;;4970270;28;20042;-70
2022/09/30 12:48:19;;;;;;;27.38;25.50;;;16.80;99.90;;;;;;4965065;28;20457;-70
2022/09/30 12:50:51;;;;;;;25.45;23.75;;;16.70;99.90;;;;;;4961351;28;20039;-69
2022/09/30 12:53:26;;;;;;;26.77;24.85;;;16.50;99.90;;;;;;4971012;28;20440;-69
2022/09/30 12:55:54;;;;;;;26.35;24.83;;;16.60;99.90;;;;;;4950788;28;20555;-69
2022/09/30 12:58:26;;;;;;;25.77;24.15;;;16.60;99.90;;;;;;4936243;28;20523;-69
2022/09/30 13:01:21;;;;;;;27.25;25.35;;;16.80;99.90;;;;;;4956534;28;20133;-68
2022/09/30 13:03:56;;;;;;;26.33;24.55;;;16.50;99.90;;;;;;4954130;28;20157;-68
2022/09/30 13:06:22;;;;;;;27.42;25.40;;;16.40;99.90;;;;;;4968931;28;20129;-68
2022/09/30 13:09:04;;;;;;;25.38;23.67;;;16.50;99.90;;;;;;4967999;28;20054;-67
2022/09/30 13:11:53;;;;;;;25.83;24.25;;;16.50;99.90;;;;;;4950791;28;20047;-72
2022/09/30 13:14:33;;;;;;;26.08;24.20;;;16.70;99.90;;;;;;4897358;28;20055;-72
2022/09/30 13:17:06;;;;;;;25.27;23.50;;;16.90;99.90;;;;;;4957622;28;20070;-72
2022/09/30 13:19:39;;;;;;;27.20;25.10;;;16.80;99.90;;;;;;4947109;28;20044;-73